createdAt,value
2023-09-04T00:00:46.761Z,99.99
2023-09-04T00:01:46.833Z,99.99
2023-09-04T00:02:46.816Z,99.99
2023-09-04T00:03:46.791Z,99.99
2023-09-04T00:04:46.741Z,99.99
2023-09-04T00:05:46.722Z,99.99
2023-09-04T00:06:46.757Z,99.99
2023-09-04T00:07:46.721Z,99.99
2023-09-04T00:08:46.683Z,99.99
2023-09-04T00:09:46.643Z,99.99
2023-09-04T00:10:46.736Z,99.99
2023-09-04T00:11:46.650Z,99.99
2023-09-04T00:12:46.609Z,99.99
2023-09-04T00:13:46.620Z,99.99
2023-09-04T00:14:46.598Z,99.99
2023-09-04T00:15:46.576Z,99.99
2023-09-04T00:16:46.602Z,99.99
2023-09-04T00:17:46.584Z,99.99
2023-09-04T00:18:46.554Z,99.99
2023-09-04T00:19:46.561Z,99.99
2023-09-04T00:20:46.514Z,99.99
2023-09-04T00:21:46.564Z,99.99
2023-09-04T00:22:46.497Z,99.99
2023-09-04T00:23:46.496Z,99.99
2023-09-04T00:24:46.493Z,99.99
2023-09-04T00:25:46.437Z,99.99
2023-09-04T00:26:46.465Z,99.99
2023-09-04T00:27:46.432Z,99.99
2023-09-04T00:28:46.475Z,99.99
2023-09-04T00:29:46.437Z,99.99
2023-09-04T00:30:46.410Z,99.99
2023-09-04T00:31:46.434Z,99.99
2023-09-04T00:32:46.362Z,99.99
2023-09-04T00:33:46.384Z,99.99
2023-09-04T00:34:46.348Z,99.99
2023-09-04T00:35:46.306Z,99.99
2023-09-04T00:36:46.297Z,99.99
2023-09-04T00:37:46.292Z,99.99
2023-09-04T00:38:46.316Z,99.99
2023-09-04T00:39:46.281Z,99.99
2023-09-04T00:40:46.279Z,99.99
2023-09-04T00:41:46.256Z,99.99
2023-09-04T00:42:46.222Z,99.99
2023-09-04T00:43:46.239Z,99.99
2023-09-04T00:44:46.190Z,99.99
2023-09-04T00:45:46.218Z,99.99
2023-09-04T00:46:46.184Z,99.99
2023-09-04T00:47:46.194Z,99.99
2023-09-04T00:48:46.147Z,99.99
2023-09-04T00:49:46.265Z,99.99
2023-09-04T00:50:46.154Z,99.99
2023-09-04T00:51:46.089Z,99.99
2023-09-04T00:52:46.080Z,99.99
2023-09-04T00:53:46.120Z,99.99
2023-09-04T00:54:46.063Z,99.99
2023-09-04T00:55:46.051Z,99.99
2023-09-04T00:56:46.061Z,99.99
2023-09-04T00:57:46.043Z,99.99
2023-09-04T00:58:46.029Z,99.99
2023-09-04T00:59:46.041Z,99.99
2023-09-04T01:00:46.012Z,99.99
2023-09-04T01:01:45.998Z,99.99
2023-09-04T01:02:46.005Z,99.99
2023-09-04T01:03:45.942Z,99.99
2023-09-04T01:04:45.920Z,99.99
2023-09-04T01:05:45.960Z,99.99
2023-09-04T01:06:45.904Z,99.99
2023-09-04T01:07:45.913Z,99.99
2023-09-04T01:08:45.871Z,99.99
2023-09-04T01:09:45.858Z,99.99
2023-09-04T01:10:45.847Z,99.99
2023-09-04T01:11:45.953Z,99.99
2023-09-04T01:12:45.848Z,99.99
2023-09-04T01:13:45.844Z,99.99
2023-09-04T01:14:45.791Z,99.99
2023-09-04T01:15:45.866Z,99.99
2023-09-04T01:16:45.880Z,99.99
2023-09-04T01:17:46.074Z,99.99
2023-09-04T01:18:45.990Z,99.99
2023-09-04T01:19:45.785Z,99.99
2023-09-04T01:20:45.765Z,99.99
2023-09-04T01:21:45.842Z,99.99
2023-09-04T01:22:45.822Z,99.99
2023-09-04T01:23:45.803Z,99.99
2023-09-04T01:24:45.827Z,99.99
2023-09-04T01:25:45.680Z,99.99
2023-09-04T01:26:45.671Z,99.99
2023-09-04T01:27:45.709Z,99.99
2023-09-04T01:28:45.645Z,99.99
2023-09-04T01:29:45.696Z,99.99
2023-09-04T01:30:45.661Z,99.99
2023-09-04T01:31:45.651Z,99.99
2023-09-04T01:32:45.584Z,99.99
2023-09-04T01:33:45.602Z,99.99
2023-09-04T01:34:45.530Z,99.99
2023-09-04T01:35:45.508Z,99.99
2023-09-04T01:36:45.531Z,99.99
2023-09-04T01:37:45.511Z,99.99
2023-09-04T01:38:45.488Z,99.99
2023-09-04T01:39:45.464Z,99.99
2023-09-04T01:40:45.456Z,99.99
2023-09-04T01:41:45.439Z,99.99
2023-09-04T01:42:45.467Z,99.99
2023-09-04T01:43:45.405Z,99.99
2023-09-04T01:44:45.451Z,99.99
2023-09-04T01:45:45.407Z,99.99
2023-09-04T01:46:45.405Z,99.99
2023-09-04T01:47:45.399Z,99.99
2023-09-04T01:48:45.387Z,99.99
2023-09-04T01:49:45.365Z,99.99
2023-09-04T01:50:45.319Z,99.99
2023-09-04T01:51:45.352Z,99.99
2023-09-04T01:52:45.332Z,99.99
2023-09-04T01:53:45.315Z,99.99
2023-09-04T01:54:45.315Z,99.99
2023-09-04T01:55:45.272Z,99.99
2023-09-04T01:56:45.277Z,99.99
2023-09-04T01:57:45.227Z,99.99
2023-09-04T01:58:45.205Z,99.99
2023-09-04T01:59:45.197Z,99.99
2023-09-04T02:00:45.200Z,99.99
2023-09-04T02:01:45.522Z,99.99
2023-09-04T02:02:45.291Z,99.99
2023-09-04T02:03:45.214Z,99.99
2023-09-04T02:04:45.178Z,99.99
2023-09-04T02:05:45.131Z,99.99
2023-09-04T02:06:45.122Z,99.99
2023-09-04T02:07:45.148Z,99.99
2023-09-04T02:08:45.089Z,99.99
2023-09-04T02:09:45.090Z,99.99
2023-09-04T02:10:45.080Z,99.99
2023-09-04T02:11:45.037Z,99.99
2023-09-04T02:12:45.020Z,99.99
2023-09-04T02:13:45.062Z,99.99
2023-09-04T02:14:45.030Z,99.99
2023-09-04T02:15:45.055Z,99.99
2023-09-04T02:16:44.996Z,99.99
2023-09-04T02:17:45.029Z,99.99
2023-09-04T02:18:44.960Z,99.99
2023-09-04T02:19:44.943Z,99.99
2023-09-04T02:20:45.034Z,99.99
2023-09-04T02:21:44.942Z,99.99
2023-09-04T02:22:44.918Z,99.99
2023-09-04T02:23:44.880Z,99.99
2023-09-04T02:24:44.877Z,99.99
2023-09-04T02:25:44.851Z,99.99
2023-09-04T02:26:44.870Z,99.99
2023-09-04T02:27:44.863Z,99.99
2023-09-04T02:28:44.809Z,99.99
2023-09-04T02:29:44.812Z,99.99
2023-09-04T02:30:44.790Z,99.99
2023-09-04T02:31:44.818Z,99.99
2023-09-04T02:32:44.807Z,99.99
2023-09-04T02:33:44.740Z,99.99
2023-09-04T02:34:44.729Z,99.99
2023-09-04T02:35:44.718Z,99.99
2023-09-04T02:36:44.734Z,99.99
2023-09-04T02:37:44.700Z,99.99
2023-09-04T02:38:44.717Z,99.99
2023-09-04T02:39:44.665Z,99.99
2023-09-04T02:40:44.670Z,99.99
2023-09-04T02:41:44.634Z,99.99
2023-09-04T02:42:44.668Z,99.99
2023-09-04T02:43:44.611Z,99.99
2023-09-04T02:44:44.608Z,99.99
2023-09-04T02:45:44.611Z,99.99
2023-09-04T02:46:44.698Z,99.99
2023-09-04T02:47:44.624Z,99.99
2023-09-04T02:48:44.553Z,99.99
2023-09-04T02:49:44.576Z,99.99
2023-09-04T02:50:44.543Z,99.99
2023-09-04T02:51:44.509Z,99.99
2023-09-04T02:52:44.554Z,99.99
2023-09-04T02:53:44.493Z,99.99
2023-09-04T02:54:44.510Z,99.99
2023-09-04T02:55:44.472Z,99.99
2023-09-04T02:56:44.460Z,99.99
2023-09-04T02:57:44.451Z,99.99
2023-09-04T02:58:44.431Z,99.99
2023-09-04T02:59:44.467Z,99.99
2023-09-04T03:00:44.387Z,99.99
2023-09-04T03:01:44.373Z,99.99
2023-09-04T03:02:44.434Z,99.99
2023-09-04T03:03:44.438Z,99.99
2023-09-04T03:04:44.372Z,99.99
2023-09-04T03:05:44.392Z,99.99
2023-09-04T03:06:44.328Z,99.99
2023-09-04T03:07:44.323Z,99.99
2023-09-04T03:08:44.282Z,99.99
2023-09-04T03:09:44.288Z,99.99
2023-09-04T03:10:44.297Z,99.99
2023-09-04T03:11:44.262Z,99.99
2023-09-04T03:12:44.261Z,99.99
2023-09-04T03:13:44.215Z,99.99
2023-09-04T03:14:44.243Z,99.99
2023-09-04T03:15:44.273Z,99.99
2023-09-04T03:16:44.271Z,99.99
2023-09-04T03:17:44.333Z,99.99
2023-09-04T03:18:44.210Z,99.99
2023-09-04T03:19:44.175Z,99.99
2023-09-04T03:20:44.162Z,99.99
2023-09-04T03:21:44.195Z,99.99
2023-09-04T03:22:44.128Z,99.99
2023-09-04T03:23:44.091Z,99.99
2023-09-04T03:24:44.115Z,99.99
2023-09-04T03:25:44.055Z,99.99
2023-09-04T03:26:44.053Z,99.99
2023-09-04T03:27:44.033Z,99.99
2023-09-04T03:28:44.053Z,99.99
2023-09-04T03:29:44.004Z,99.99
2023-09-04T03:32:03.180Z,99.99
2023-09-04T03:33:03.209Z,99.99
2023-09-04T03:34:03.071Z,99.99
2023-09-04T03:35:03.034Z,99.99
2023-09-04T03:36:03.044Z,99.99
2023-09-04T03:37:03.038Z,99.99
2023-09-04T03:38:03.051Z,99.99
2023-09-04T03:39:02.999Z,99.99
2023-09-04T03:40:02.977Z,99.99
2023-09-04T03:41:02.957Z,99.99
2023-09-04T03:42:02.996Z,99.99
2023-09-04T03:43:02.949Z,99.99
2023-09-04T03:44:02.959Z,99.99
2023-09-04T03:45:02.910Z,99.99
2023-09-04T03:46:02.909Z,99.99
2023-09-04T03:47:02.899Z,99.99
2023-09-04T03:48:02.963Z,99.99
2023-09-04T03:49:02.891Z,99.99
2023-09-04T03:50:02.864Z,99.99
2023-09-04T03:51:02.823Z,99.99
2023-09-04T03:52:02.856Z,99.99
2023-09-04T03:53:02.804Z,99.99
2023-09-04T03:54:03.737Z,99.99
2023-09-04T03:55:02.782Z,99.99
2023-09-04T03:56:02.786Z,99.99
2023-09-04T03:57:02.807Z,99.99
2023-09-04T03:58:02.725Z,99.99
2023-09-04T03:59:02.749Z,99.99
2023-09-04T04:00:02.739Z,99.99
2023-09-04T04:01:02.708Z,99.99
2023-09-04T04:02:02.677Z,99.99
2023-09-04T04:03:02.718Z,99.99
2023-09-04T04:04:02.743Z,99.99
2023-09-04T04:05:02.655Z,99.99
2023-09-04T04:06:02.661Z,99.99
2023-09-04T04:07:02.628Z,99.99
2023-09-04T04:08:02.632Z,99.99
2023-09-04T04:09:02.604Z,99.99
2023-09-04T04:10:02.590Z,99.99
2023-09-04T04:11:02.599Z,99.99
2023-09-04T04:12:02.540Z,99.99
2023-09-04T04:13:02.534Z,99.99
2023-09-04T04:14:02.524Z,99.99
2023-09-04T04:15:02.530Z,99.99
2023-09-04T04:16:02.497Z,99.99
2023-09-04T04:17:02.499Z,99.99
2023-09-04T04:18:03.404Z,99.99
2023-09-04T04:19:02.461Z,99.99
2023-09-04T04:20:02.462Z,99.99
2023-09-04T04:21:02.457Z,99.99
2023-09-04T04:22:02.433Z,99.99
2023-09-04T04:23:02.452Z,99.99
2023-09-04T04:24:02.428Z,99.99
2023-09-04T04:25:02.390Z,99.99
2023-09-04T04:26:02.385Z,99.99
2023-09-04T04:27:02.405Z,99.99
2023-09-04T04:28:02.331Z,99.99
2023-09-04T04:29:02.341Z,99.99
2023-09-04T04:30:02.308Z,99.99
2023-09-04T04:31:02.318Z,99.99
2023-09-04T04:32:02.370Z,99.99
2023-09-04T04:33:02.301Z,99.99
2023-09-04T04:34:02.256Z,99.99
2023-09-04T04:35:02.270Z,99.99
2023-09-04T04:36:02.255Z,99.99
2023-09-04T04:37:02.264Z,99.99
2023-09-04T04:38:02.200Z,99.99
2023-09-04T04:39:02.208Z,99.99
2023-09-04T04:40:02.198Z,99.99
2023-09-04T04:41:02.244Z,99.99
2023-09-04T04:42:02.189Z,99.99
2023-09-04T04:43:02.157Z,99.99
2023-09-04T04:44:02.186Z,99.99
2023-09-04T04:45:02.108Z,99.99
2023-09-04T04:46:02.156Z,99.99
2023-09-04T04:47:02.123Z,99.99
2023-09-04T04:48:02.090Z,99.99
2023-09-04T04:49:02.086Z,99.99
2023-09-04T04:50:02.035Z,99.99
2023-09-04T04:51:02.027Z,99.99
2023-09-04T04:52:02.059Z,99.99
2023-09-04T04:53:02.041Z,99.99
2023-09-04T04:54:02.013Z,99.99
2023-09-04T04:55:01.983Z,99.99
2023-09-04T04:56:01.960Z,99.99
2023-09-04T04:57:01.948Z,99.99
2023-09-04T04:58:01.969Z,99.99
2023-09-04T04:59:01.922Z,99.99
2023-09-04T05:00:01.915Z,99.99
2023-09-04T05:01:01.938Z,99.99
2023-09-04T05:02:01.935Z,99.99
2023-09-04T05:03:01.954Z,99.99
2023-09-04T05:04:01.974Z,99.99
2023-09-04T05:05:01.880Z,99.99
2023-09-04T05:06:01.845Z,99.99
2023-09-04T05:07:01.812Z,99.99
2023-09-04T05:08:01.811Z,99.99
2023-09-04T05:09:01.792Z,99.99
2023-09-04T05:10:01.782Z,99.99
2023-09-04T05:11:01.781Z,99.99
2023-09-04T05:12:01.817Z,99.99
2023-09-04T05:13:01.760Z,99.99
2023-09-04T05:14:01.756Z,99.99
2023-09-04T05:15:01.715Z,99.99
2023-09-04T05:16:01.762Z,99.99
2023-09-04T05:17:01.689Z,99.99
2023-09-04T05:18:01.802Z,99.99
2023-09-04T05:19:01.665Z,99.99
2023-09-04T05:20:01.692Z,99.99
2023-09-04T05:21:01.658Z,99.99
2023-09-04T05:22:01.627Z,99.99
2023-09-04T05:23:02.927Z,99.99
2023-09-04T05:24:01.596Z,99.99
2023-09-04T05:25:01.606Z,99.99
2023-09-04T05:26:01.588Z,99.99
2023-09-04T05:27:01.585Z,99.99
2023-09-04T05:28:01.572Z,99.99
2023-09-04T05:29:01.527Z,99.99
2023-09-04T05:30:01.515Z,99.99
2023-09-04T05:31:01.549Z,99.99
2023-09-04T05:32:01.542Z,99.99
2023-09-04T05:33:01.583Z,99.99
2023-09-04T05:34:01.597Z,99.99
2023-09-04T05:35:01.526Z,99.99
2023-09-04T05:36:01.461Z,99.99
2023-09-04T05:37:01.441Z,99.99
2023-09-04T05:38:01.417Z,99.99
2023-09-04T05:39:01.422Z,99.99
2023-09-04T05:40:02.362Z,99.99
2023-09-04T05:41:01.404Z,99.99
2023-09-04T05:42:01.374Z,99.99
2023-09-04T05:43:01.402Z,99.99
2023-09-04T05:44:01.357Z,99.99
2023-09-04T05:45:01.313Z,99.99
2023-09-04T05:46:01.304Z,99.99
2023-09-04T05:47:01.314Z,99.99
2023-09-04T05:48:01.328Z,99.99
2023-09-04T05:49:01.273Z,99.99
2023-09-04T05:50:01.249Z,99.99
2023-09-04T05:51:01.237Z,99.99
2023-09-04T05:52:01.222Z,99.99
2023-09-04T05:53:01.214Z,99.99
2023-09-04T05:54:01.205Z,99.99
2023-09-04T05:55:01.189Z,99.99
2023-09-04T05:56:01.166Z,99.99
2023-09-04T05:57:01.169Z,99.99
2023-09-04T05:58:01.174Z,99.99
2023-09-04T05:59:01.126Z,99.99
2023-09-04T06:00:01.150Z,99.99
2023-09-04T06:01:01.199Z,99.99
2023-09-04T06:02:01.125Z,99.99
2023-09-04T06:03:01.182Z,99.99
2023-09-04T06:04:01.116Z,99.99
2023-09-04T06:05:01.050Z,99.99
2023-09-04T06:06:01.071Z,99.99
2023-09-04T06:07:01.139Z,99.99
2023-09-04T06:08:01.147Z,99.99
2023-09-04T06:09:01.027Z,99.99
2023-09-04T06:10:01.019Z,99.99
2023-09-04T06:11:00.976Z,99.99
2023-09-04T06:12:01.043Z,99.99
2023-09-04T06:13:00.975Z,99.99
2023-09-04T06:14:00.959Z,99.99
2023-09-04T06:15:00.913Z,99.99
2023-09-04T06:16:00.902Z,99.99
2023-09-04T06:17:00.920Z,99.99
2023-09-04T06:18:00.972Z,99.99
2023-09-04T06:19:00.882Z,99.99
2023-09-04T06:20:00.899Z,99.99
2023-09-04T06:21:00.856Z,99.99
2023-09-04T06:22:00.851Z,99.99
2023-09-04T06:23:00.809Z,99.99
2023-09-04T06:24:00.839Z,99.99
2023-09-04T06:25:00.781Z,99.99
2023-09-04T06:26:00.786Z,99.99
2023-09-04T06:27:00.904Z,99.99
2023-09-04T06:28:00.800Z,99.99
2023-09-04T06:29:00.735Z,99.99
2023-09-04T06:30:00.721Z,99.99
2023-09-04T06:31:00.740Z,99.99
2023-09-04T06:32:00.737Z,99.99
2023-09-04T06:33:00.715Z,99.99
2023-09-04T06:34:00.669Z,99.99
2023-09-04T06:35:00.650Z,99.99
2023-09-04T06:36:00.657Z,99.99
2023-09-04T06:37:00.639Z,99.99
2023-09-04T06:38:00.648Z,99.99
2023-09-04T06:39:00.647Z,99.99
2023-09-04T06:40:00.646Z,99.99
2023-09-04T06:41:00.605Z,99.99
2023-09-04T06:42:00.568Z,99.99
2023-09-04T06:43:00.551Z,99.99
2023-09-04T06:44:00.566Z,99.99
2023-09-04T06:45:00.565Z,99.99
2023-09-04T06:46:00.554Z,99.99
2023-09-04T06:47:03.315Z,99.99
2023-09-04T06:48:00.535Z,99.99
2023-09-04T06:49:00.481Z,99.99
2023-09-04T06:50:00.462Z,99.99
2023-09-04T06:51:00.434Z,99.99
2023-09-04T06:52:00.452Z,99.99
2023-09-04T06:53:00.448Z,99.99
2023-09-04T06:54:00.430Z,99.99
2023-09-04T06:55:00.463Z,99.99
2023-09-04T06:56:00.395Z,99.99
2023-09-04T06:57:00.390Z,99.99
2023-09-04T06:58:00.389Z,99.99
2023-09-04T06:59:00.343Z,99.99
2023-09-04T07:00:00.322Z,99.99
2023-09-04T07:01:00.308Z,99.99
2023-09-04T07:02:00.387Z,99.99
2023-09-04T07:03:00.307Z,99.99
2023-09-04T07:04:00.300Z,99.99
2023-09-04T07:05:00.291Z,99.99
2023-09-04T07:06:00.270Z,99.99
2023-09-04T07:07:00.254Z,99.99
2023-09-04T07:08:00.235Z,99.99
2023-09-04T07:09:00.246Z,99.99
2023-09-04T07:10:00.218Z,99.99
2023-09-04T07:11:00.206Z,99.99
2023-09-04T07:12:00.205Z,99.99
2023-09-04T07:13:00.167Z,99.99
2023-09-04T07:14:00.153Z,99.99
2023-09-04T07:15:00.148Z,99.99
2023-09-04T07:16:00.156Z,99.99
2023-09-04T07:17:08.287Z,99.99
2023-09-04T07:18:01.230Z,99.99
2023-09-04T07:19:00.101Z,99.99
2023-09-04T07:20:00.087Z,99.99
2023-09-04T07:21:00.092Z,99.99
2023-09-04T07:22:00.069Z,99.99
2023-09-04T07:23:14.105Z,99.99
2023-09-04T07:24:01.033Z,99.99
2023-09-04T07:25:00.016Z,99.99
2023-09-04T07:26:00.000Z,99.99
2023-09-04T07:27:00.015Z,99.99
2023-09-04T07:27:59.968Z,99.62
2023-09-04T07:28:59.941Z,99.07
2023-09-04T07:29:59.925Z,98.66
2023-09-04T07:30:59.940Z,98.51
2023-09-04T07:31:59.940Z,97.50
2023-09-04T07:32:59.974Z,96.80
2023-09-04T07:33:59.918Z,96.09
2023-09-04T07:34:59.903Z,95.94
2023-09-04T07:35:59.848Z,95.03
2023-09-04T07:36:59.864Z,93.72
2023-09-04T07:37:59.827Z,92.36
2023-09-04T07:38:59.854Z,91.76
2023-09-04T07:39:59.821Z,91.86
2023-09-04T07:40:59.784Z,92.72
2023-09-04T07:41:59.775Z,91.91
2023-09-04T07:42:59.782Z,91.37
2023-09-04T07:43:59.746Z,91.17
2023-09-04T07:44:59.727Z,90.52
2023-09-04T07:45:59.849Z,90.22
2023-09-04T07:46:59.757Z,90.22
2023-09-04T07:47:59.755Z,90.17
2023-09-04T07:48:59.710Z,90.37
2023-09-04T07:49:59.690Z,88.12
2023-09-04T07:50:59.646Z,87.62
2023-09-04T07:51:59.670Z,86.61
2023-09-04T07:52:59.657Z,86.87
2023-09-04T07:53:59.640Z,86.46
2023-09-04T07:54:59.597Z,86.43
2023-09-04T07:55:59.621Z,84.01
2023-09-04T07:56:59.602Z,83.81
2023-09-04T07:57:59.609Z,84.27
2023-09-04T07:58:59.579Z,84.07
2023-09-04T07:59:59.545Z,83.47
2023-09-04T08:00:59.558Z,82.92
2023-09-04T08:01:59.567Z,81.92
2023-09-04T08:02:59.586Z,82.92
2023-09-04T08:03:59.542Z,82.78
2023-09-04T08:04:59.478Z,81.38
2023-09-04T08:05:59.505Z,81.38
2023-09-04T08:06:59.441Z,82.04
2023-09-04T08:07:59.444Z,82.34
2023-09-04T08:08:59.407Z,82.60
2023-09-04T08:09:59.426Z,82.31
2023-09-04T08:10:59.406Z,79.99
2023-09-04T08:11:59.389Z,79.75
2023-09-04T08:12:59.382Z,79.16
2023-09-04T08:13:59.569Z,79.42
2023-09-04T08:14:59.333Z,78.52
2023-09-04T08:15:59.335Z,78.42
2023-09-04T08:16:59.331Z,77.98
2023-09-04T08:17:59.336Z,75.97
2023-09-04T08:18:59.302Z,75.27
2023-09-04T08:19:59.297Z,75.97
2023-09-04T08:20:59.248Z,76.64
2023-09-04T08:21:59.250Z,76.24
2023-09-04T08:22:59.321Z,76.50
2023-09-04T08:23:59.228Z,76.10
2023-09-04T08:24:59.222Z,75.20
2023-09-04T08:25:59.186Z,73.70
2023-09-04T08:26:59.213Z,74.87
2023-09-04T08:27:59.183Z,72.96
2023-09-04T08:28:59.165Z,73.66
2023-09-04T08:29:59.205Z,70.46
2023-09-04T08:30:59.205Z,71.16
2023-09-04T08:31:59.139Z,71.46
2023-09-04T08:32:59.178Z,72.56
2023-09-04T08:33:59.092Z,72.96
2023-09-04T08:34:59.066Z,73.93
2023-09-04T08:35:59.089Z,73.83
2023-09-04T08:36:59.079Z,72.72
2023-09-04T08:37:59.126Z,71.62
2023-09-04T08:38:59.141Z,71.89
2023-09-04T08:39:59.777Z,70.69
2023-09-04T08:40:59.012Z,70.79
2023-09-04T08:41:58.967Z,71.79
2023-09-04T08:42:59.036Z,72.79
2023-09-04T08:43:58.957Z,71.86
2023-09-04T08:44:58.976Z,71.16
2023-09-04T08:45:58.956Z,70.26
2023-09-04T08:46:58.930Z,69.86
2023-09-04T08:47:59.016Z,70.23
2023-09-04T08:48:58.909Z,70.23
2023-09-04T08:49:58.868Z,69.93
2023-09-04T08:50:58.873Z,69.59
2023-09-04T08:51:58.866Z,67.60
2023-09-04T08:52:58.875Z,67.30
2023-09-04T08:54:01.195Z,65.67
2023-09-04T08:54:58.823Z,66.77
2023-09-04T08:55:58.830Z,68.03
2023-09-04T08:56:58.784Z,66.93
2023-09-04T08:57:58.776Z,66.13
2023-09-04T08:58:58.810Z,64.94
2023-09-04T08:59:58.765Z,66.10
2023-09-04T09:00:58.779Z,64.41
2023-09-04T09:01:58.708Z,64.31
2023-09-04T09:03:01.791Z,65.97
2023-09-04T09:03:58.755Z,66.77
2023-09-04T09:04:58.721Z,66.24
2023-09-04T09:05:58.666Z,65.64
2023-09-04T09:06:58.674Z,64.94
2023-09-04T09:07:58.657Z,64.34
2023-09-04T09:08:59.381Z,62.75
2023-09-04T09:09:58.632Z,61.55
2023-09-04T09:10:58.653Z,60.96
2023-09-04T09:11:58.579Z,61.46
2023-09-04T09:12:58.585Z,61.69
2023-09-04T09:13:58.563Z,62.75
2023-09-04T09:14:58.535Z,61.55
2023-09-04T09:15:58.596Z,60.76
2023-09-04T09:16:58.536Z,61.76
2023-09-04T09:17:58.533Z,63.15
2023-09-04T09:18:58.520Z,63.12
2023-09-04T09:19:58.514Z,61.03
2023-09-04T09:20:58.459Z,61.00
2023-09-04T09:21:58.443Z,59.51
2023-09-04T09:22:58.434Z,60.50
2023-09-04T09:23:58.462Z,61.47
2023-09-04T09:24:58.440Z,62.16
2023-09-04T09:25:58.415Z,62.63
2023-09-04T09:26:58.379Z,62.73
2023-09-04T09:27:58.414Z,63.49
2023-09-04T09:28:58.361Z,61.11
2023-09-04T09:29:58.462Z,60.42
2023-09-04T09:30:58.425Z,59.03
2023-09-04T09:31:58.358Z,58.33
2023-09-04T09:32:58.373Z,58.73
2023-09-04T09:33:58.370Z,59.39
2023-09-04T09:34:58.310Z,58.60
2023-09-04T09:35:58.318Z,56.91
2023-09-04T09:36:58.266Z,58.50
2023-09-04T09:37:58.231Z,58.27
2023-09-04T09:38:58.257Z,59.86
2023-09-04T09:39:58.264Z,57.55
2023-09-04T09:40:58.202Z,58.25
2023-09-04T09:41:58.209Z,55.66
2023-09-04T09:42:58.194Z,56.66
2023-09-04T09:43:58.195Z,57.15
2023-09-04T09:44:58.263Z,57.23
2023-09-04T09:45:58.140Z,55.64
2023-09-04T09:46:58.155Z,55.27
2023-09-04T09:47:58.161Z,56.95
2023-09-04T09:48:58.121Z,56.56
2023-09-04T09:49:58.112Z,57.13
2023-09-04T09:50:58.142Z,55.54
2023-09-04T09:51:58.066Z,54.94
2023-09-04T09:52:58.066Z,54.35
2023-09-04T09:53:58.060Z,55.64
2023-09-04T09:54:58.019Z,57.42
2023-09-04T09:55:58.005Z,54.25
2023-09-04T09:56:58.037Z,54.94
2023-09-04T09:57:58.005Z,58.02
2023-09-04T09:58:58.005Z,58.61
2023-09-04T09:59:57.965Z,54.52
2023-09-04T10:00:57.974Z,55.51
2023-09-04T10:01:57.944Z,55.68
2023-09-04T10:02:58.132Z,54.20
2023-09-04T10:03:57.929Z,53.90
2023-09-04T10:04:57.876Z,53.70
2023-09-04T10:05:58.174Z,55.49
2023-09-04T10:06:57.911Z,54.96
2023-09-04T10:07:57.907Z,56.05
2023-09-04T10:08:57.838Z,57.12
2023-09-04T10:09:57.843Z,52.26
2023-09-04T10:10:57.805Z,52.59
2023-09-04T10:11:58.235Z,53.80
2023-09-04T10:12:57.808Z,55.98
2023-09-04T10:13:57.814Z,57.24
2023-09-04T10:14:57.833Z,55.06
2023-09-04T10:15:57.816Z,54.37
2023-09-04T10:16:57.751Z,53.25
2023-09-04T10:17:57.785Z,52.07
2023-09-04T10:18:57.724Z,52.07
2023-09-04T10:19:59.527Z,51.87
2023-09-04T10:20:57.698Z,53.63
2023-09-04T10:21:57.676Z,52.83
2023-09-04T10:22:57.700Z,54.10
2023-09-04T10:23:57.657Z,53.50
2023-09-04T10:24:57.640Z,51.10
2023-09-04T10:25:57.660Z,51.99
2023-09-04T10:26:57.611Z,51.40
2023-09-04T10:27:57.631Z,50.78
2023-09-04T10:28:57.583Z,50.41
2023-09-04T10:29:57.616Z,50.12
2023-09-04T10:30:57.603Z,47.44
2023-09-04T10:31:57.621Z,49.84
2023-09-04T10:32:57.596Z,52.98
2023-09-04T10:33:57.524Z,49.91
2023-09-04T10:34:57.504Z,49.22
2023-09-04T10:35:57.524Z,50.51
2023-09-04T10:36:57.470Z,50.59
2023-09-04T10:37:57.466Z,51.57
2023-09-04T10:38:57.473Z,49.77
2023-09-04T10:40:58.454Z,49.74
2023-09-04T10:41:57.436Z,47.06
2023-09-04T10:42:57.432Z,46.96
2023-09-04T10:43:57.435Z,46.47
2023-09-04T10:44:08.099Z,50.73
2023-09-04T10:44:57.402Z,47.45
2023-09-04T10:45:57.440Z,48.91
2023-09-04T10:46:57.562Z,47.63
2023-09-04T10:47:57.421Z,44.07
2023-09-04T10:48:57.362Z,46.84
2023-09-04T10:49:57.400Z,45.34
2023-09-04T10:50:57.288Z,46.52
2023-09-04T10:51:57.289Z,45.14
2023-09-04T10:52:57.302Z,43.09
2023-09-04T10:53:57.288Z,42.50
2023-09-04T10:54:57.313Z,43.86
2023-09-04T10:55:57.250Z,43.59
2023-09-04T10:56:57.272Z,49.01
2023-09-04T10:57:57.235Z,46.94
2023-09-04T10:58:57.222Z,47.90
2023-09-04T10:59:57.265Z,45.93
2023-09-04T11:00:57.206Z,45.81
2023-09-04T11:01:57.187Z,46.59
2023-09-04T11:02:57.148Z,45.88
2023-09-04T11:03:57.160Z,43.23
2023-09-04T11:04:57.138Z,45.49
2023-09-04T11:05:57.122Z,45.07
2023-09-04T11:06:57.104Z,43.70
2023-09-04T11:07:57.126Z,42.61
2023-09-04T11:08:57.136Z,42.83
2023-09-04T11:09:57.068Z,43.13
2023-09-04T11:10:57.052Z,41.75
2023-09-04T11:11:57.060Z,41.77
2023-09-04T11:12:57.030Z,44.62
2023-09-04T11:13:57.000Z,45.90
2023-09-04T11:14:57.005Z,44.90
2023-09-04T11:15:56.996Z,45.19
2023-09-04T11:16:56.950Z,46.28
2023-09-04T11:17:56.985Z,41.73
2023-09-04T11:18:56.936Z,45.27
2023-09-04T11:19:56.929Z,45.76
2023-09-04T11:20:56.931Z,44.56
2023-09-04T11:21:56.888Z,42.89
2023-09-04T11:22:56.875Z,42.99
2023-09-04T11:23:56.885Z,45.81
2023-09-04T11:24:56.846Z,42.77
2023-09-04T11:25:56.834Z,43.85
2023-09-04T11:26:56.885Z,44.15
2023-09-04T11:27:56.837Z,45.03
2023-09-04T11:28:56.912Z,45.23
2023-09-04T11:29:56.922Z,43.14
2023-09-04T11:30:56.797Z,43.04
2023-09-04T11:32:57.844Z,42.75
2023-09-04T11:33:21.773Z,40.48
2023-09-04T11:33:56.735Z,39.31
2023-09-04T11:34:56.731Z,45.10
2023-09-04T11:35:56.741Z,43.43
2023-09-04T11:36:56.703Z,43.02
2023-09-04T11:37:58.535Z,44.40
2023-09-04T11:38:56.667Z,39.48
2023-09-04T11:39:59.173Z,38.11
2023-09-04T11:40:57.682Z,38.82
2023-09-04T11:41:56.652Z,39.60
2023-09-04T11:42:56.629Z,44.42
2023-09-04T11:43:56.632Z,42.35
2023-09-04T11:44:56.729Z,41.94
2023-09-04T11:45:56.708Z,40.96
2023-09-04T11:46:56.598Z,41.06
2023-09-04T11:47:56.590Z,40.25
2023-09-04T11:48:56.561Z,40.35
2023-09-04T11:49:56.555Z,39.58
2023-09-04T11:50:56.590Z,38.80
2023-09-04T11:51:56.530Z,36.93
2023-09-04T11:52:57.669Z,38.90
2023-09-04T11:53:56.491Z,37.24
2023-09-04T11:54:56.484Z,41.77
2023-09-04T11:55:56.495Z,43.73
2023-09-04T11:56:56.449Z,38.50
2023-09-04T11:57:56.483Z,37.32
2023-09-04T11:58:56.433Z,42.61
2023-09-04T11:59:56.436Z,40.25
2023-09-04T12:00:56.408Z,37.98
2023-09-04T12:01:56.467Z,35.52
2023-09-04T12:02:56.505Z,42.11
2023-09-04T12:03:56.480Z,40.43
2023-09-04T12:04:56.426Z,36.91
2023-09-04T12:05:56.372Z,39.56
2023-09-04T12:06:56.341Z,41.03
2023-09-04T12:07:56.332Z,42.29
2023-09-04T12:08:56.342Z,42.58
2023-09-04T12:09:56.304Z,41.39
2023-09-04T12:10:56.291Z,40.11
2023-09-04T12:11:56.258Z,37.74
2023-09-04T12:12:56.253Z,37.35
2023-09-04T12:13:56.250Z,38.04
2023-09-04T12:14:56.268Z,36.68
2023-09-04T12:15:56.270Z,38.64
2023-09-04T12:16:56.227Z,41.00
2023-09-04T12:17:56.210Z,40.61
2023-09-04T12:18:56.185Z,39.33
2023-09-04T12:19:56.162Z,37.38
2023-09-04T12:20:56.154Z,40.23
2023-09-04T12:21:56.192Z,43.08
2023-09-04T12:22:56.125Z,39.82
2023-09-04T12:23:56.129Z,39.62
2023-09-04T12:24:56.091Z,42.37
2023-09-04T12:25:56.110Z,38.92
2023-09-04T12:26:56.062Z,39.01
2023-09-04T12:27:56.100Z,39.01
2023-09-04T12:28:56.062Z,37.07
2023-09-04T12:29:56.054Z,36.78
2023-09-04T12:30:56.050Z,36.40
2023-09-04T12:31:56.043Z,37.50
2023-09-04T12:32:56.020Z,41.55
2023-09-04T12:33:56.029Z,40.47
2023-09-04T12:34:56.104Z,40.27
2023-09-04T12:35:55.952Z,38.90
2023-09-04T12:36:55.965Z,39.19
2023-09-04T12:37:55.958Z,37.62
2023-09-04T12:38:55.903Z,37.93
2023-09-04T12:39:55.982Z,37.46
2023-09-04T12:40:55.892Z,42.77
2023-09-04T12:41:55.918Z,39.62
2023-09-04T12:42:55.860Z,40.39
2023-09-04T12:43:55.900Z,42.45
2023-09-04T12:44:55.885Z,39.39
2023-09-04T12:45:55.930Z,38.01
2023-09-04T12:46:55.830Z,41.86
2023-09-04T12:47:55.828Z,38.72
2023-09-04T12:48:55.809Z,39.70
2023-09-04T12:49:55.775Z,42.45
2023-09-04T12:50:55.767Z,41.56
2023-09-04T12:51:55.749Z,37.24
2023-09-04T12:52:55.757Z,37.74
2023-09-04T12:53:55.725Z,42.75